Aqaba Port, Jordan

7:44 PM EEST on July 23, 2016 (GMT +0300)
Aqaba International | | Change Station

Elev 174 ft 29.61 °N, 35.02 °E | Updated 44 minutes ago

Clear
Clear
97 °F
Feels Like 95 °F
N
14
Wind Variable Wind from North

Today
High -- | Low -- °F
--% Chance of Precip.
Yesterday
High -- | Low -- °F
Precip. -- in
Pressure 29.65 in
Visibility 3.7 miles
Clouds
Heat Index 95 °F
Dew Point 55 °F
Humidity 25%
Rainfall 0.00 in
Snow Depth Not available.
5:54 AM 7:37 PM
Waning Gibbous, 84% visible
METAR OJAQ 231600Z 35012KT 6000 NSC 36/13 Q1004 NOSIG
Pressure 29.65 in
Visibility 3.7 miles
Clouds
Heat Index 95 °F
Dew Point 55 °F
Humidity 25%
Rainfall 0.00 in
Snow Depth Not available.
5:54 AM 7:37 PM
Waning Gibbous, 84% visible
METAR OJAQ 231600Z 35012KT 6000 NSC 36/13 Q1004 NOSIG

10-Day Weather Forecast

No radar image for this location.
×

Almanac

Astronomy

Jul. 23, 2016 Rise Set
Actual Time
Civil Twilight
Nautical Twilight
Astronomical Twilight
Moon
Length of Visible Light
Length of Day
Tomorrow will be .
, % of the Moon is Illuminated

Today's Extremes

Country Highs Country Lows

Community

WunderPhotos

Upload Photos

1,926,861 photos uploaded!

WunderBlog® & News

Nearby

Air Quality

  Air Quality AQ Index Pollutant
Not available.

Snow Depth

Station Depth Elevation

Earthquake Activity

City Distance Mag. Time & Date
Minimum magnitude displayed is 2.5.

Coastal Water Temperatures

Place Temperature

Stations

Nearby Weather Stations

Station Location Temp. Windchill Dew Point Humidity Wind Precip. Elev Updated Type